Overview Statistics Trail Chart Weather Telemetry Raw packets
 

This is the latest recevied weather packets stored in our database for station/object YO8SHU-10. If no packets are shown the sender has not sent any weather packets the latest 10 day(s).

<< 1 2 3 4 5 >>
Time Temp. Humidity Pressure Rain* Wind** Luminosity Snow
1788591659 28.33° C 70% 1020.4 hPa - - - -
1788589859 27.78° C 75% 1020.6 hPa - - - -
1788588059 23.89° C 100% 1020.7 hPa - - - -
1788586258 23.89° C 100% 1020.8 hPa - - - -
1788584458 23.89° C 90% 1020.7 hPa - - - -
1788582658 23.33° C 89% 1020.6 hPa - - - -
1788580858 19.44° C 100% 1020.4 hPa - - - -
1788579058 16.11° C 100% 1020.4 hPa - - - -
1788577258 16.11° C 100% 1020.3 hPa - - - -
1788575458 16.67° C 100% 1020.2 hPa - - - -
1788573658 17.22° C 100% 1020.3 hPa - - - -
1788571858 17.78° C 100% 1020.3 hPa - - - -
1788570057 18.33° C 100% 1020.3 hPa - - - -
1788568257 18.33° C 100% 1020.4 hPa - - - -
1788566457 17.78° C 100% 1020.5 hPa - - - -
1788564657 18.33° C 100% 1020.6 hPa - - - -
1788562857 18.89° C 100% 1020.6 hPa - - - -
1788561057 18.89° C 100% 1020.7 hPa - - - -
1788559257 19.44° C 100% 1020.8 hPa - - - -
1788557457 19.44° C 100% 1020.8 hPa - - - -
1788555657 20.56° C 100% 1020.7 hPa - - - -
1788553856 20.56° C 100% 1021 hPa - - - -
1788552056 21.11° C 97% 1020.8 hPa - - - -
1788550256 21.67° C 93% 1020.7 hPa - - - -
1788548456 22.22° C 88% 1020.9 hPa - - - -

* Rain since midnight (hover to see other rain measurements)
** Current wind speed in m/s (hover to see current wind gust speed)